sensor_id;sensor_type;location;lat;lon;timestamp;P1;durP1;ratioP1;P2;durP2;ratioP2
10805;SDS011;5455;53.224;6.000;2024-02-15T00:02:23;16.63;;;6.80;;
10805;SDS011;5455;53.224;6.000;2024-02-15T00:04:50;14.90;;;7.13;;
10805;SDS011;5455;53.224;6.000;2024-02-15T00:07:17;15.07;;;7.23;;
10805;SDS011;5455;53.224;6.000;2024-02-15T00:09:49;16.23;;;6.90;;
10805;SDS011;5455;53.224;6.000;2024-02-15T00:12:16;18.50;;;7.70;;
10805;SDS011;5455;53.224;6.000;2024-02-15T00:14:43;17.73;;;6.47;;
10805;SDS011;5455;53.224;6.000;2024-02-15T00:17:10;19.83;;;6.93;;
10805;SDS011;5455;53.224;6.000;2024-02-15T00:19:39;15.07;;;6.57;;
10805;SDS011;5455;53.224;6.000;2024-02-15T00:22:09;11.87;;;5.70;;
10805;SDS011;5455;53.224;6.000;2024-02-15T00:24:37;15.23;;;5.90;;
10805;SDS011;5455;53.224;6.000;2024-02-15T00:27:09;12.50;;;5.07;;
10805;SDS011;5455;53.224;6.000;2024-02-15T00:29:38;11.33;;;4.97;;
10805;SDS011;5455;53.224;6.000;2024-02-15T00:32:07;18.73;;;5.70;;
10805;SDS011;5455;53.224;6.000;2024-02-15T00:34:35;12.87;;;5.43;;
10805;SDS011;5455;53.224;6.000;2024-02-15T00:37:03;11.50;;;4.83;;
10805;SDS011;5455;53.224;6.000;2024-02-15T00:39:31;13.60;;;5.03;;
10805;SDS011;5455;53.224;6.000;2024-02-15T00:41:58;15.97;;;4.80;;
10805;SDS011;5455;53.224;6.000;2024-02-15T00:44:29;10.80;;;4.70;;
10805;SDS011;5455;53.224;6.000;2024-02-15T00:46:56;9.20;;;4.27;;
10805;SDS011;5455;53.224;6.000;2024-02-15T00:49:22;10.47;;;4.50;;
10805;SDS011;5455;53.224;6.000;2024-02-15T00:51:50;13.03;;;4.43;;
10805;SDS011;5455;53.224;6.000;2024-02-15T00:54:17;13.77;;;4.40;;
10805;SDS011;5455;53.224;6.000;2024-02-15T00:56:44;12.33;;;4.40;;
10805;SDS011;5455;53.224;6.000;2024-02-15T00:59:11;10.97;;;3.90;;
10805;SDS011;5455;53.224;6.000;2024-02-15T01:01:38;14.87;;;4.20;;
10805;SDS011;5455;53.224;6.000;2024-02-15T01:04:05;13.57;;;3.80;;
10805;SDS011;5455;53.224;6.000;2024-02-15T01:06:32;10.33;;;3.90;;
10805;SDS011;5455;53.224;6.000;2024-02-15T01:08:59;9.47;;;3.60;;
10805;SDS011;5455;53.224;6.000;2024-02-15T01:11:30;11.67;;;3.77;;
10805;SDS011;5455;53.224;6.000;2024-02-15T01:14:02;9.67;;;3.50;;
10805;SDS011;5455;53.224;6.000;2024-02-15T01:16:29;13.90;;;4.20;;
10805;SDS011;5455;53.224;6.000;2024-02-15T01:18:57;7.73;;;2.63;;
10805;SDS011;5455;53.224;6.000;2024-02-15T01:21:24;12.93;;;3.87;;
10805;SDS011;5455;53.224;6.000;2024-02-15T01:23:51;7.43;;;3.43;;
10805;SDS011;5455;53.224;6.000;2024-02-15T01:26:20;14.30;;;3.53;;
10805;SDS011;5455;53.224;6.000;2024-02-15T01:28:47;6.67;;;2.60;;
10805;SDS011;5455;53.224;6.000;2024-02-15T01:31:14;10.67;;;2.77;;
10805;SDS011;5455;53.224;6.000;2024-02-15T01:33:44;7.93;;;2.83;;
10805;SDS011;5455;53.224;6.000;2024-02-15T01:36:15;6.33;;;3.07;;
10805;SDS011;5455;53.224;6.000;2024-02-15T01:38:43;14.00;;;3.77;;
10805;SDS011;5455;53.224;6.000;2024-02-15T01:41:12;10.93;;;3.10;;
10805;SDS011;5455;53.224;6.000;2024-02-15T01:43:43;8.33;;;3.07;;
10805;SDS011;5455;53.224;6.000;2024-02-15T01:46:14;8.60;;;3.37;;
10805;SDS011;5455;53.224;6.000;2024-02-15T01:48:42;9.43;;;3.30;;
10805;SDS011;5455;53.224;6.000;2024-02-15T01:51:11;9.97;;;3.23;;
10805;SDS011;5455;53.224;6.000;2024-02-15T01:53:41;8.17;;;3.40;;
10805;SDS011;5455;53.224;6.000;2024-02-15T01:56:09;10.17;;;3.10;;
10805;SDS011;5455;53.224;6.000;2024-02-15T01:58:40;11.33;;;2.87;;
10805;SDS011;5455;53.224;6.000;2024-02-15T02:01:09;9.17;;;3.33;;
10805;SDS011;5455;53.224;6.000;2024-02-15T02:03:38;9.03;;;3.50;;
10805;SDS011;5455;53.224;6.000;2024-02-15T02:06:06;8.53;;;3.00;;
10805;SDS011;5455;53.224;6.000;2024-02-15T02:08:34;9.77;;;3.67;;
10805;SDS011;5455;53.224;6.000;2024-02-15T02:11:01;9.93;;;3.00;;
10805;SDS011;5455;53.224;6.000;2024-02-15T02:13:28;8.43;;;3.30;;
10805;SDS011;5455;53.224;6.000;2024-02-15T02:15:57;7.27;;;2.87;;
10805;SDS011;5455;53.224;6.000;2024-02-15T02:18:26;6.13;;;2.93;;
10805;SDS011;5455;53.224;6.000;2024-02-15T02:20:53;9.33;;;3.47;;
10805;SDS011;5455;53.224;6.000;2024-02-15T02:23:21;7.67;;;3.13;;
10805;SDS011;5455;53.224;6.000;2024-02-15T02:25:54;9.53;;;2.93;;
10805;SDS011;5455;53.224;6.000;2024-02-15T02:28:22;8.77;;;3.07;;
10805;SDS011;5455;53.224;6.000;2024-02-15T02:30:49;9.87;;;3.53;;
10805;SDS011;5455;53.224;6.000;2024-02-15T02:33:17;11.20;;;3.13;;
10805;SDS011;5455;53.224;6.000;2024-02-15T02:35:49;5.97;;;2.60;;
10805;SDS011;5455;53.224;6.000;2024-02-15T02:38:17;6.77;;;3.00;;
10805;SDS011;5455;53.224;6.000;2024-02-15T02:40:44;9.50;;;3.10;;
10805;SDS011;5455;53.224;6.000;2024-02-15T02:43:11;10.97;;;3.43;;
10805;SDS011;5455;53.224;6.000;2024-02-15T02:45:39;11.30;;;3.37;;
10805;SDS011;5455;53.224;6.000;2024-02-15T02:48:06;11.60;;;3.07;;
10805;SDS011;5455;53.224;6.000;2024-02-15T02:50:34;8.53;;;3.03;;
10805;SDS011;5455;53.224;6.000;2024-02-15T02:53:01;10.43;;;3.93;;
10805;SDS011;5455;53.224;6.000;2024-02-15T02:55:28;5.90;;;3.27;;
10805;SDS011;5455;53.224;6.000;2024-02-15T02:57:56;12.13;;;4.23;;
10805;SDS011;5455;53.224;6.000;2024-02-15T03:00:23;10.47;;;3.30;;
10805;SDS011;5455;53.224;6.000;2024-02-15T03:02:50;10.13;;;3.77;;
10805;SDS011;5455;53.224;6.000;2024-02-15T03:05:17;11.77;;;3.70;;
10805;SDS011;5455;53.224;6.000;2024-02-15T03:07:48;14.17;;;4.37;;
10805;SDS011;5455;53.224;6.000;2024-02-15T03:10:18;15.20;;;5.00;;
10805;SDS011;5455;53.224;6.000;2024-02-15T03:12:45;15.67;;;5.93;;
10805;SDS011;5455;53.224;6.000;2024-02-15T03:15:15;13.83;;;4.90;;
10805;SDS011;5455;53.224;6.000;2024-02-15T03:17:45;16.07;;;5.30;;
10805;SDS011;5455;53.224;6.000;2024-02-15T03:20:13;13.10;;;5.03;;
10805;SDS011;5455;53.224;6.000;2024-02-15T03:22:55;12.37;;;5.13;;
10805;SDS011;5455;53.224;6.000;2024-02-15T03:25:26;14.00;;;4.93;;
10805;SDS011;5455;53.224;6.000;2024-02-15T03:27:58;8.80;;;4.50;;
10805;SDS011;5455;53.224;6.000;2024-02-15T03:30:26;12.90;;;4.73;;
10805;SDS011;5455;53.224;6.000;2024-02-15T03:32:53;12.70;;;4.30;;
10805;SDS011;5455;53.224;6.000;2024-02-15T03:35:22;12.37;;;4.20;;
10805;SDS011;5455;53.224;6.000;2024-02-15T03:37:52;9.53;;;4.20;;
10805;SDS011;5455;53.224;6.000;2024-02-15T03:40:19;9.57;;;3.97;;
10805;SDS011;5455;53.224;6.000;2024-02-15T03:42:47;8.47;;;3.73;;
10805;SDS011;5455;53.224;6.000;2024-02-15T03:45:17;11.57;;;3.87;;
10805;SDS011;5455;53.224;6.000;2024-02-15T03:47:44;11.73;;;3.70;;
10805;SDS011;5455;53.224;6.000;2024-02-15T03:50:13;10.07;;;3.23;;
10805;SDS011;5455;53.224;6.000;2024-02-15T03:52:43;11.07;;;3.63;;
10805;SDS011;5455;53.224;6.000;2024-02-15T03:55:10;6.70;;;3.20;;
10805;SDS011;5455;53.224;6.000;2024-02-15T03:57:38;7.77;;;3.63;;
10805;SDS011;5455;53.224;6.000;2024-02-15T04:00:10;13.30;;;4.07;;
10805;SDS011;5455;53.224;6.000;2024-02-15T04:02:38;11.60;;;3.13;;
10805;SDS011;5455;53.224;6.000;2024-02-15T04:05:10;8.97;;;3.30;;
10805;SDS011;5455;53.224;6.000;2024-02-15T04:07:39;14.53;;;3.77;;
10805;SDS011;5455;53.224;6.000;2024-02-15T04:10:07;10.40;;;3.43;;
10805;SDS011;5455;53.224;6.000;2024-02-15T04:12:35;8.50;;;3.97;;
10805;SDS011;5455;53.224;6.000;2024-02-15T04:15:03;10.00;;;3.53;;
10805;SDS011;5455;53.224;6.000;2024-02-15T04:17:39;8.83;;;3.60;;
10805;SDS011;5455;53.224;6.000;2024-02-15T04:20:08;10.83;;;4.13;;
10805;SDS011;5455;53.224;6.000;2024-02-15T04:22:36;10.07;;;3.80;;
10805;SDS011;5455;53.224;6.000;2024-02-15T04:25:10;9.77;;;3.70;;
10805;SDS011;5455;53.224;6.000;2024-02-15T04:27:38;15.20;;;4.33;;
10805;SDS011;5455;53.224;6.000;2024-02-15T04:30:06;13.10;;;4.77;;
10805;SDS011;5455;53.224;6.000;2024-02-15T04:32:35;11.50;;;4.33;;
10805;SDS011;5455;53.224;6.000;2024-02-15T04:35:03;6.67;;;3.77;;
10805;SDS011;5455;53.224;6.000;2024-02-15T04:37:34;7.57;;;3.90;;
10805;SDS011;5455;53.224;6.000;2024-02-15T04:40:04;10.17;;;4.63;;
10805;SDS011;5455;53.224;6.000;2024-02-15T04:42:37;6.50;;;3.97;;
10805;SDS011;5455;53.224;6.000;2024-02-15T04:45:07;9.60;;;4.60;;
10805;SDS011;5455;53.224;6.000;2024-02-15T04:47:37;10.97;;;4.17;;
10805;SDS011;5455;53.224;6.000;2024-02-15T04:50:04;9.07;;;3.90;;
10805;SDS011;5455;53.224;6.000;2024-02-15T04:52:33;8.97;;;4.50;;
10805;SDS011;5455;53.224;6.000;2024-02-15T04:55:00;8.67;;;4.53;;
10805;SDS011;5455;53.224;6.000;2024-02-15T04:57:31;7.83;;;4.30;;
10805;SDS011;5455;53.224;6.000;2024-02-15T05:00:01;9.17;;;4.93;;
10805;SDS011;5455;53.224;6.000;2024-02-15T05:02:35;9.90;;;4.30;;
10805;SDS011;5455;53.224;6.000;2024-02-15T05:05:07;8.53;;;4.40;;
10805;SDS011;5455;53.224;6.000;2024-02-15T05:07:35;11.00;;;4.97;;
10805;SDS011;5455;53.224;6.000;2024-02-15T05:10:07;10.33;;;4.90;;
10805;SDS011;5455;53.224;6.000;2024-02-15T05:12:37;7.37;;;4.63;;
10805;SDS011;5455;53.224;6.000;2024-02-15T05:15:05;11.00;;;4.50;;
10805;SDS011;5455;53.224;6.000;2024-02-15T05:17:39;7.63;;;4.17;;
10805;SDS011;5455;53.224;6.000;2024-02-15T05:20:10;9.70;;;4.97;;
10805;SDS011;5455;53.224;6.000;2024-02-15T05:22:39;6.77;;;4.13;;
10805;SDS011;5455;53.224;6.000;2024-02-15T05:25:09;9.10;;;4.47;;
10805;SDS011;5455;53.224;6.000;2024-02-15T05:27:39;8.00;;;4.87;;
10805;SDS011;5455;53.224;6.000;2024-02-15T05:30:06;5.40;;;4.03;;
10805;SDS011;5455;53.224;6.000;2024-02-15T05:32:34;9.60;;;4.70;;
10805;SDS011;5455;53.224;6.000;2024-02-15T05:35:09;12.57;;;4.67;;
10805;SDS011;5455;53.224;6.000;2024-02-15T05:37:38;6.90;;;4.43;;
10805;SDS011;5455;53.224;6.000;2024-02-15T05:40:05;9.07;;;4.10;;
10805;SDS011;5455;53.224;6.000;2024-02-15T05:42:34;10.17;;;4.70;;
10805;SDS011;5455;53.224;6.000;2024-02-15T05:47:53;13.00;;;4.93;;
10805;SDS011;5455;53.224;6.000;2024-02-15T05:50:21;9.67;;;4.93;;
10805;SDS011;5455;53.224;6.000;2024-02-15T05:52:50;7.73;;;4.23;;
10805;SDS011;5455;53.224;6.000;2024-02-15T05:55:22;7.07;;;4.40;;
10805;SDS011;5455;53.224;6.000;2024-02-15T05:57:49;9.27;;;4.57;;
10805;SDS011;5455;53.224;6.000;2024-02-15T06:00:16;7.30;;;4.20;;
10805;SDS011;5455;53.224;6.000;2024-02-15T06:02:49;8.77;;;4.50;;
10805;SDS011;5455;53.224;6.000;2024-02-15T06:05:18;13.00;;;5.27;;
10805;SDS011;5455;53.224;6.000;2024-02-15T06:07:45;8.90;;;5.40;;
10805;SDS011;5455;53.224;6.000;2024-02-15T06:10:14;9.23;;;5.03;;
10805;SDS011;5455;53.224;6.000;2024-02-15T06:12:42;8.13;;;4.90;;
10805;SDS011;5455;53.224;6.000;2024-02-15T06:15:10;10.53;;;5.37;;
10805;SDS011;5455;53.224;6.000;2024-02-15T06:17:55;8.50;;;4.30;;
10805;SDS011;5455;53.224;6.000;2024-02-15T06:20:24;6.30;;;4.90;;
10805;SDS011;5455;53.224;6.000;2024-02-15T06:22:53;8.70;;;5.50;;
10805;SDS011;5455;53.224;6.000;2024-02-15T06:25:20;8.37;;;5.10;;
10805;SDS011;5455;53.224;6.000;2024-02-15T06:27:48;9.27;;;4.73;;
10805;SDS011;5455;53.224;6.000;2024-02-15T06:30:18;10.53;;;5.10;;
10805;SDS011;5455;53.224;6.000;2024-02-15T06:33:03;8.93;;;5.90;;
10805;SDS011;5455;53.224;6.000;2024-02-15T06:35:49;9.93;;;6.57;;
10805;SDS011;5455;53.224;6.000;2024-02-15T06:38:35;9.80;;;6.40;;
10805;SDS011;5455;53.224;6.000;2024-02-15T06:41:21;9.40;;;5.80;;
10805;SDS011;5455;53.224;6.000;2024-02-15T06:43:51;13.43;;;8.67;;
10805;SDS011;5455;53.224;6.000;2024-02-15T06:46:18;10.93;;;7.43;;
10805;SDS011;5455;53.224;6.000;2024-02-15T06:48:46;15.63;;;7.40;;
10805;SDS011;5455;53.224;6.000;2024-02-15T06:51:13;10.37;;;6.53;;
10805;SDS011;5455;53.224;6.000;2024-02-15T06:53:42;9.37;;;6.63;;
10805;SDS011;5455;53.224;6.000;2024-02-15T06:56:10;14.67;;;7.70;;
10805;SDS011;5455;53.224;6.000;2024-02-15T06:58:39;10.30;;;7.40;;
10805;SDS011;5455;53.224;6.000;2024-02-15T07:01:07;8.37;;;5.97;;
10805;SDS011;5455;53.224;6.000;2024-02-15T07:03:35;12.87;;;6.83;;
10805;SDS011;5455;53.224;6.000;2024-02-15T07:06:02;11.80;;;7.20;;
10805;SDS011;5455;53.224;6.000;2024-02-15T07:08:31;12.20;;;6.80;;
10805;SDS011;5455;53.224;6.000;2024-02-15T07:10:58;11.10;;;7.37;;
10805;SDS011;5455;53.224;6.000;2024-02-15T07:13:25;10.17;;;7.17;;
10805;SDS011;5455;53.224;6.000;2024-02-15T07:15:53;12.17;;;7.43;;
10805;SDS011;5455;53.224;6.000;2024-02-15T07:18:20;12.13;;;8.03;;
10805;SDS011;5455;53.224;6.000;2024-02-15T07:20:54;12.10;;;7.20;;
10805;SDS011;5455;53.224;6.000;2024-02-15T07:23:23;12.10;;;6.83;;
10805;SDS011;5455;53.224;6.000;2024-02-15T07:25:52;13.03;;;7.50;;
10805;SDS011;5455;53.224;6.000;2024-02-15T07:28:20;10.77;;;7.10;;
10805;SDS011;5455;53.224;6.000;2024-02-15T07:30:48;15.20;;;7.77;;
10805;SDS011;5455;53.224;6.000;2024-02-15T07:33:17;10.30;;;6.50;;
10805;SDS011;5455;53.224;6.000;2024-02-15T07:35:44;9.87;;;7.23;;
10805;SDS011;5455;53.224;6.000;2024-02-15T07:38:12;11.80;;;7.30;;
10805;SDS011;5455;53.224;6.000;2024-02-15T07:40:39;10.77;;;7.60;;
10805;SDS011;5455;53.224;6.000;2024-02-15T07:43:08;11.23;;;7.03;;
10805;SDS011;5455;53.224;6.000;2024-02-15T07:45:34;9.70;;;6.93;;
10805;SDS011;5455;53.224;6.000;2024-02-15T07:48:03;9.70;;;7.03;;
10805;SDS011;5455;53.224;6.000;2024-02-15T07:50:31;11.53;;;7.50;;
10805;SDS011;5455;53.224;6.000;2024-02-15T07:52:59;10.60;;;7.13;;
10805;SDS011;5455;53.224;6.000;2024-02-15T07:55:26;8.70;;;6.40;;
10805;SDS011;5455;53.224;6.000;2024-02-15T07:57:53;9.77;;;6.43;;
10805;SDS011;5455;53.224;6.000;2024-02-15T08:00:20;10.10;;;6.50;;
10805;SDS011;5455;53.224;6.000;2024-02-15T08:02:47;10.93;;;7.03;;
10805;SDS011;5455;53.224;6.000;2024-02-15T08:05:14;9.63;;;6.20;;
10805;SDS011;5455;53.224;6.000;2024-02-15T08:07:42;9.07;;;6.90;;
10805;SDS011;5455;53.224;6.000;2024-02-15T08:10:11;8.67;;;6.33;;
10805;SDS011;5455;53.224;6.000;2024-02-15T08:12:42;10.27;;;7.03;;
10805;SDS011;5455;53.224;6.000;2024-02-15T08:15:13;10.37;;;5.97;;
10805;SDS011;5455;53.224;6.000;2024-02-15T08:17:40;7.93;;;6.33;;
10805;SDS011;5455;53.224;6.000;2024-02-15T08:20:12;10.23;;;6.70;;
10805;SDS011;5455;53.224;6.000;2024-02-15T08:22:40;8.63;;;6.70;;
10805;SDS011;5455;53.224;6.000;2024-02-15T08:25:11;13.07;;;6.50;;
10805;SDS011;5455;53.224;6.000;2024-02-15T08:27:40;8.97;;;6.10;;
10805;SDS011;5455;53.224;6.000;2024-02-15T08:30:10;10.17;;;6.80;;
10805;SDS011;5455;53.224;6.000;2024-02-15T08:32:39;10.40;;;6.60;;
10805;SDS011;5455;53.224;6.000;2024-02-15T08:35:10;9.23;;;5.87;;
10805;SDS011;5455;53.224;6.000;2024-02-15T08:37:39;10.17;;;6.20;;
10805;SDS011;5455;53.224;6.000;2024-02-15T08:40:08;8.53;;;5.60;;
10805;SDS011;5455;53.224;6.000;2024-02-15T08:42:40;9.53;;;6.70;;
10805;SDS011;5455;53.224;6.000;2024-02-15T08:45:08;7.87;;;6.37;;
10805;SDS011;5455;53.224;6.000;2024-02-15T08:47:36;10.53;;;6.50;;
10805;SDS011;5455;53.224;6.000;2024-02-15T08:50:04;9.77;;;6.57;;
10805;SDS011;5455;53.224;6.000;2024-02-15T08:52:32;7.63;;;5.23;;
10805;SDS011;5455;53.224;6.000;2024-02-15T08:54:59;9.57;;;5.73;;
10805;SDS011;5455;53.224;6.000;2024-02-15T08:57:27;8.37;;;6.37;;
10805;SDS011;5455;53.224;6.000;2024-02-15T08:59:54;9.90;;;6.30;;
10805;SDS011;5455;53.224;6.000;2024-02-15T09:02:21;9.90;;;5.43;;
10805;SDS011;5455;53.224;6.000;2024-02-15T09:04:48;9.57;;;6.10;;
10805;SDS011;5455;53.224;6.000;2024-02-15T09:07:16;12.07;;;6.80;;
10805;SDS011;5455;53.224;6.000;2024-02-15T09:09:43;7.87;;;5.87;;
10805;SDS011;5455;53.224;6.000;2024-02-15T09:12:10;8.70;;;6.20;;
10805;SDS011;5455;53.224;6.000;2024-02-15T09:14:38;8.97;;;5.57;;
10805;SDS011;5455;53.224;6.000;2024-02-15T09:17:05;7.13;;;5.33;;
10805;SDS011;5455;53.224;6.000;2024-02-15T09:19:35;8.67;;;6.03;;
10805;SDS011;5455;53.224;6.000;2024-02-15T09:22:04;6.53;;;5.10;;
10805;SDS011;5455;53.224;6.000;2024-02-15T09:24:33;8.73;;;5.80;;
10805;SDS011;5455;53.224;6.000;2024-02-15T09:27:01;8.07;;;5.30;;
10805;SDS011;5455;53.224;6.000;2024-02-15T09:29:28;5.97;;;4.80;;
10805;SDS011;5455;53.224;6.000;2024-02-15T09:32:02;7.07;;;5.13;;
10805;SDS011;5455;53.224;6.000;2024-02-15T09:34:30;6.50;;;4.73;;
10805;SDS011;5455;53.224;6.000;2024-02-15T09:36:57;7.47;;;4.83;;
10805;SDS011;5455;53.224;6.000;2024-02-15T09:39:24;5.93;;;4.50;;
10805;SDS011;5455;53.224;6.000;2024-02-15T09:41:52;4.90;;;4.30;;
10805;SDS011;5455;53.224;6.000;2024-02-15T09:44:25;6.10;;;4.27;;
10805;SDS011;5455;53.224;6.000;2024-02-15T09:47:02;5.27;;;4.50;;
10805;SDS011;5455;53.224;6.000;2024-02-15T09:49:37;5.33;;;4.30;;
10805;SDS011;5455;53.224;6.000;2024-02-15T09:52:07;5.97;;;3.97;;
10805;SDS011;5455;53.224;6.000;2024-02-15T09:54:39;4.80;;;4.30;;
10805;SDS011;5455;53.224;6.000;2024-02-15T09:57:10;4.90;;;3.73;;
10805;SDS011;5455;53.224;6.000;2024-02-15T09:59:38;4.87;;;3.90;;
10805;SDS011;5455;53.224;6.000;2024-02-15T10:02:07;6.17;;;3.70;;
10805;SDS011;5455;53.224;6.000;2024-02-15T10:04:40;4.83;;;3.47;;
10805;SDS011;5455;53.224;6.000;2024-02-15T10:07:08;5.23;;;3.60;;
10805;SDS011;5455;53.224;6.000;2024-02-15T10:09:36;3.87;;;3.30;;
10805;SDS011;5455;53.224;6.000;2024-02-15T10:12:03;3.97;;;3.57;;
10805;SDS011;5455;53.224;6.000;2024-02-15T10:14:35;4.67;;;3.60;;
10805;SDS011;5455;53.224;6.000;2024-02-15T10:17:06;6.97;;;3.73;;
10805;SDS011;5455;53.224;6.000;2024-02-15T10:19:38;5.63;;;3.50;;
10805;SDS011;5455;53.224;6.000;2024-02-15T10:22:06;4.03;;;3.17;;
10805;SDS011;5455;53.224;6.000;2024-02-15T10:24:34;3.30;;;3.00;;
10805;SDS011;5455;53.224;6.000;2024-02-15T10:27:02;3.63;;;2.93;;
10805;SDS011;5455;53.224;6.000;2024-02-15T10:29:30;4.90;;;3.53;;
10805;SDS011;5455;53.224;6.000;2024-02-15T10:31:58;3.23;;;2.87;;
10805;SDS011;5455;53.224;6.000;2024-02-15T10:34:26;4.43;;;3.00;;
10805;SDS011;5455;53.224;6.000;2024-02-15T10:36:54;3.33;;;3.03;;
10805;SDS011;5455;53.224;6.000;2024-02-15T10:39:24;3.90;;;2.83;;
10805;SDS011;5455;53.224;6.000;2024-02-15T10:41:53;3.87;;;2.73;;
10805;SDS011;5455;53.224;6.000;2024-02-15T10:44:21;3.23;;;2.20;;
10805;SDS011;5455;53.224;6.000;2024-02-15T10:46:50;3.83;;;2.73;;
10805;SDS011;5455;53.224;6.000;2024-02-15T10:49:22;3.90;;;2.70;;
10805;SDS011;5455;53.224;6.000;2024-02-15T10:55:03;2.50;;;1.97;;
10805;SDS011;5455;53.224;6.000;2024-02-15T10:57:20;2.10;;;1.80;;
10805;SDS011;5455;53.224;6.000;2024-02-15T10:59:56;1.40;;;1.00;;
10805;SDS011;5455;53.224;6.000;2024-02-15T11:02:28;1.50;;;1.27;;
10805;SDS011;5455;53.224;6.000;2024-02-15T11:05:01;1.20;;;0.87;;
10805;SDS011;5455;53.224;6.000;2024-02-15T11:07:37;0.87;;;0.87;;
10805;SDS011;5455;53.224;6.000;2024-02-15T11:10:05;1.83;;;1.33;;
10805;SDS011;5455;53.224;6.000;2024-02-15T11:12:35;1.47;;;1.20;;
10805;SDS011;5455;53.224;6.000;2024-02-15T11:15:03;1.30;;;1.10;;
10805;SDS011;5455;53.224;6.000;2024-02-15T11:20:04;2.10;;;1.80;;
10805;SDS011;5455;53.224;6.000;2024-02-15T11:22:36;2.33;;;1.67;;
10805;SDS011;5455;53.224;6.000;2024-02-15T11:25:04;2.07;;;1.67;;
10805;SDS011;5455;53.224;6.000;2024-02-15T11:27:43;1.50;;;1.40;;
10805;SDS011;5455;53.224;6.000;2024-02-15T11:30:10;1.20;;;1.10;;
10805;SDS011;5455;53.224;6.000;2024-02-15T11:35:17;1.83;;;1.63;;
10805;SDS011;5455;53.224;6.000;2024-02-15T11:40:21;1.83;;;1.70;;
10805;SDS011;5455;53.224;6.000;2024-02-15T11:42:54;2.23;;;1.60;;
10805;SDS011;5455;53.224;6.000;2024-02-15T11:45:25;3.50;;;2.60;;
10805;SDS011;5455;53.224;6.000;2024-02-15T11:47:59;5.70;;;3.03;;
10805;SDS011;5455;53.224;6.000;2024-02-15T11:50:27;6.20;;;3.60;;
10805;SDS011;5455;53.224;6.000;2024-02-15T11:53:01;6.67;;;3.70;;
10805;SDS011;5455;53.224;6.000;2024-02-15T11:55:33;7.57;;;4.53;;
10805;SDS011;5455;53.224;6.000;2024-02-15T11:58:02;9.63;;;4.97;;
10805;SDS011;5455;53.224;6.000;2024-02-15T12:00:32;8.93;;;5.30;;
10805;SDS011;5455;53.224;6.000;2024-02-15T12:03:18;7.60;;;4.63;;
10805;SDS011;5455;53.224;6.000;2024-02-15T12:06:06;9.80;;;5.77;;
10805;SDS011;5455;53.224;6.000;2024-02-15T12:08:53;10.27;;;5.93;;
10805;SDS011;5455;53.224;6.000;2024-02-15T12:11:40;11.17;;;5.87;;
10805;SDS011;5455;53.224;6.000;2024-02-15T12:14:26;10.37;;;6.63;;
10805;SDS011;5455;53.224;6.000;2024-02-15T12:17:12;10.10;;;5.80;;
10805;SDS011;5455;53.224;6.000;2024-02-15T12:20:00;12.63;;;6.10;;
10805;SDS011;5455;53.224;6.000;2024-02-15T12:22:41;11.13;;;6.50;;
10805;SDS011;5455;53.224;6.000;2024-02-15T12:25:15;12.23;;;6.80;;
10805;SDS011;5455;53.224;6.000;2024-02-15T12:27:43;11.70;;;6.43;;
10805;SDS011;5455;53.224;6.000;2024-02-15T12:30:15;9.70;;;6.30;;
10805;SDS011;5455;53.224;6.000;2024-02-15T12:32:52;10.50;;;6.43;;
10805;SDS011;5455;53.224;6.000;2024-02-15T12:35:20;12.50;;;6.67;;
10805;SDS011;5455;53.224;6.000;2024-02-15T12:38:02;11.80;;;7.20;;
10805;SDS011;5455;53.224;6.000;2024-02-15T12:40:33;11.07;;;6.70;;
10805;SDS011;5455;53.224;6.000;2024-02-15T12:43:02;11.57;;;6.63;;
10805;SDS011;5455;53.224;6.000;2024-02-15T12:45:41;8.67;;;5.57;;
10805;SDS011;5455;53.224;6.000;2024-02-15T12:48:09;10.40;;;6.43;;
10805;SDS011;5455;53.224;6.000;2024-02-15T12:50:38;16.57;;;7.87;;
10805;SDS011;5455;53.224;6.000;2024-02-15T12:53:06;9.30;;;5.47;;
10805;SDS011;5455;53.224;6.000;2024-02-15T12:55:35;8.07;;;5.43;;
10805;SDS011;5455;53.224;6.000;2024-02-15T12:58:04;8.50;;;5.90;;
10805;SDS011;5455;53.224;6.000;2024-02-15T13:00:35;9.30;;;6.07;;
10805;SDS011;5455;53.224;6.000;2024-02-15T13:03:07;7.87;;;5.10;;
10805;SDS011;5455;53.224;6.000;2024-02-15T13:05:37;7.97;;;5.17;;
10805;SDS011;5455;53.224;6.000;2024-02-15T13:08:05;12.47;;;6.30;;
10805;SDS011;5455;53.224;6.000;2024-02-15T13:10:37;10.17;;;6.07;;
10805;SDS011;5455;53.224;6.000;2024-02-15T13:13:06;11.63;;;5.63;;
10805;SDS011;5455;53.224;6.000;2024-02-15T13:15:36;10.77;;;6.00;;
10805;SDS011;5455;53.224;6.000;2024-02-15T13:18:04;9.03;;;6.00;;
10805;SDS011;5455;53.224;6.000;2024-02-15T13:20:32;10.10;;;6.13;;
10805;SDS011;5455;53.224;6.000;2024-02-15T13:23:02;10.33;;;5.63;;
10805;SDS011;5455;53.224;6.000;2024-02-15T13:25:36;9.47;;;5.87;;
10805;SDS011;5455;53.224;6.000;2024-02-15T13:28:04;10.73;;;5.97;;
10805;SDS011;5455;53.224;6.000;2024-02-15T13:30:31;9.10;;;5.43;;
10805;SDS011;5455;53.224;6.000;2024-02-15T13:32:59;8.50;;;5.93;;
10805;SDS011;5455;53.224;6.000;2024-02-15T13:35:29;9.03;;;6.00;;
10805;SDS011;5455;53.224;6.000;2024-02-15T13:37:56;17.57;;;9.57;;
10805;SDS011;5455;53.224;6.000;2024-02-15T13:40:26;11.00;;;6.53;;
10805;SDS011;5455;53.224;6.000;2024-02-15T13:42:55;9.73;;;6.17;;
10805;SDS011;5455;53.224;6.000;2024-02-15T13:45:32;11.83;;;5.73;;
10805;SDS011;5455;53.224;6.000;2024-02-15T13:48:05;12.50;;;5.93;;
10805;SDS011;5455;53.224;6.000;2024-02-15T13:50:37;9.90;;;5.70;;
10805;SDS011;5455;53.224;6.000;2024-02-15T13:53:08;10.70;;;6.53;;
10805;SDS011;5455;53.224;6.000;2024-02-15T13:55:37;8.40;;;5.67;;
10805;SDS011;5455;53.224;6.000;2024-02-15T13:58:04;9.33;;;5.30;;
10805;SDS011;5455;53.224;6.000;2024-02-15T14:00:31;7.70;;;5.40;;
10805;SDS011;5455;53.224;6.000;2024-02-15T14:03:01;11.77;;;7.10;;
10805;SDS011;5455;53.224;6.000;2024-02-15T14:05:30;10.13;;;5.60;;
10805;SDS011;5455;53.224;6.000;2024-02-15T14:08:02;9.63;;;5.60;;
10805;SDS011;5455;53.224;6.000;2024-02-15T14:10:33;19.77;;;8.83;;
10805;SDS011;5455;53.224;6.000;2024-02-15T14:13:04;8.20;;;5.73;;
10805;SDS011;5455;53.224;6.000;2024-02-15T14:15:37;6.47;;;4.70;;
10805;SDS011;5455;53.224;6.000;2024-02-15T14:18:08;9.20;;;5.80;;
10805;SDS011;5455;53.224;6.000;2024-02-15T14:20:46;9.70;;;5.50;;
10805;SDS011;5455;53.224;6.000;2024-02-15T14:23:14;9.00;;;4.97;;
10805;SDS011;5455;53.224;6.000;2024-02-15T14:25:42;9.60;;;5.20;;
10805;SDS011;5455;53.224;6.000;2024-02-15T14:28:12;8.57;;;4.97;;
10805;SDS011;5455;53.224;6.000;2024-02-15T14:30:41;9.07;;;5.30;;
10805;SDS011;5455;53.224;6.000;2024-02-15T14:33:27;8.37;;;5.40;;
10805;SDS011;5455;53.224;6.000;2024-02-15T14:35:57;10.10;;;5.17;;
10805;SDS011;5455;53.224;6.000;2024-02-15T14:38:26;7.13;;;4.57;;
10805;SDS011;5455;53.224;6.000;2024-02-15T14:40:53;8.13;;;4.90;;
10805;SDS011;5455;53.224;6.000;2024-02-15T14:43:23;9.77;;;4.77;;
10805;SDS011;5455;53.224;6.000;2024-02-15T14:45:52;11.60;;;5.07;;
10805;SDS011;5455;53.224;6.000;2024-02-15T14:48:20;9.20;;;4.90;;
10805;SDS011;5455;53.224;6.000;2024-02-15T14:50:48;9.93;;;6.10;;
10805;SDS011;5455;53.224;6.000;2024-02-15T14:53:18;10.17;;;5.03;;
10805;SDS011;5455;53.224;6.000;2024-02-15T14:55:48;12.07;;;6.30;;
10805;SDS011;5455;53.224;6.000;2024-02-15T14:58:17;9.53;;;5.30;;
10805;SDS011;5455;53.224;6.000;2024-02-15T15:00:46;9.30;;;5.60;;
10805;SDS011;5455;53.224;6.000;2024-02-15T15:03:14;8.00;;;5.30;;
10805;SDS011;5455;53.224;6.000;2024-02-15T15:05:43;10.67;;;5.73;;
10805;SDS011;5455;53.224;6.000;2024-02-15T15:08:30;7.07;;;4.70;;
10805;SDS011;5455;53.224;6.000;2024-02-15T15:11:16;10.60;;;4.93;;
10805;SDS011;5455;53.224;6.000;2024-02-15T15:14:02;7.90;;;4.73;;
10805;SDS011;5455;53.224;6.000;2024-02-15T15:16:32;8.07;;;4.60;;
10805;SDS011;5455;53.224;6.000;2024-02-15T15:19:00;8.70;;;5.77;;
10805;SDS011;5455;53.224;6.000;2024-02-15T15:21:29;11.73;;;7.17;;
10805;SDS011;5455;53.224;6.000;2024-02-15T15:23:56;11.50;;;5.87;;
10805;SDS011;5455;53.224;6.000;2024-02-15T15:26:23;10.10;;;4.90;;